Naniwa Maru No.21 — JG5648 — position and weather

sailwx.info

Track history (hours):
 
Tides and Currents Weather Stations Pressure Air Temp Water Temp Dewpoint Dewpoint Depression Visibility Wind Speed Wind Dir Waves Ship Positions

Naniwa Maru No.21

Last reported at 2018-Apr-23 15:30 UTC. Time now 2018-Apr-23 15:30 UTC.
Position N 33°58' E 132°44'.

Length 71 m; draft 4.4 m.

Type: Tanker. MMSI: 431301595.

Date/timePositionNaut miles runAvg speedWind from/ knotsBaromVisibWave heightAir tempDewpointWater temp
2018-Apr-23 15:30N 33°58' E 132°44'5712.7
2018-Apr-23 11:01N 33°47' E 131°37'213.6
2018-Apr-23 10:53N 33°47' E 131°35'613.7
2018-Apr-23 10:28N 33°48' E 131°28'714.1
2018-Apr-23 10:00N 33°50' E 131°20'713.8
2018-Apr-23 09:30N 33°51' E 131°12'713.5
2018-Apr-23 09:00N 33°55' E 131°05'612.6
2018-Apr-23 08:30N 33°58' E 130°59'611.5
2018-Apr-23 08:01N 33°54' E 130°54'612.1
2018-Apr-23 07:30N 33°58' E 130°48'713.1
2018-Apr-23 07:00N 33°57' E 130°40'713.4
2018-Apr-23 06:30N 33°56' E 130°32'613.0
2018-Apr-23 06:00N 33°52' E 130°26'713.5
2018-Apr-23 05:30N 33°47' E 130°21'712.9
2018-Apr-23 05:00N 33°41' E 130°16'612.5
2018-Apr-23 04:30N 33°37' E 130°21'1 2.6
2018-Apr-23 03:59N 33°36' E 130°23'0 0.0
2018-Apr-23 03:29N 33°36' E 130°23'0 0.0
2018-Apr-23 02:59N 33°36' E 130°23'0 0.0
2018-Apr-23 02:29N 33°36' E 130°23'0 0.0
2018-Apr-23 02:00N 33°36' E 130°23'0 0.0
2018-Apr-23 01:30N 33°36' E 130°23'0 0.0
2018-Apr-23 01:01N 33°36' E 130°23'0 0.0
2018-Apr-23 00:30N 33°36' E 130°23'0 0.0
2018-Apr-23 00:01N 33°36' E 130°23'1 1.1
2018-Apr-22 23:30N 33°37' E 130°23'4 8.4
2018-Apr-22 23:00N 33°38' E 130°19'510.2
2018-Apr-22 22:30N 33°44' E 130°17'613.0
2018-Apr-22 22:00N 33°48' E 130°22'712.9
2018-Apr-22 21:30N 33°54' E 130°27'611.9
2018-Apr-22 21:00N 33°58' E 130°32'713.2
2018-Apr-22 20:28N 34°01' E 130°40'612.7
2018-Apr-22 20:00N 34°02' E 130°47'611.5
2018-Apr-22 19:30N 33°58' E 130°51'5 9.5
2018-Apr-22 19:00N 33°57' E 130°57'612.5
2018-Apr-22 18:30N 33°57' E 131°04'713.3
2018-Apr-22 18:00N 33°53' E 131°11'713.3
2018-Apr-22 17:31N 33°51' E 131°18'713.3
2018-Apr-22 17:00N 33°50' E 131°26'713.2
2018-Apr-22 16:31N 33°48' E 131°34'713.6
2018-Apr-22 16:00N 33°47' E 131°42'713.6
2018-Apr-22 15:31N 33°45' E 131°50'713.6
2018-Apr-22 15:00N 33°44' E 131°58'43 1.8
2018-Apr-21 15:12N 34°01' E 132°45'315.5
2018-Apr-21 15:00N 33°58' E 132°44'5113.2
2018-Apr-21 11:09N 33°45' E 131°45'213.3
2018-Apr-21 10:59N 33°45' E 131°42'713.4
2018-Apr-21 10:26N 33°47' E 131°33'613.5
2018-Apr-21 10:00N 33°48' E 131°27'713.6
2018-Apr-21 09:30N 33°50' E 131°19'713.7
2018-Apr-21 09:00N 33°52' E 131°11'713.8
2018-Apr-21 08:30N 33°56' E 131°04'1 2.3
2018-Apr-21 07:55N 33°56' E 131°03'0 0.1
2018-Apr-21 07:25N 33°56' E 131°03'1 3.0
2018-Apr-21 07:00N 33°57' E 131°02'511.0
2018-Apr-21 06:30N 33°55' E 130°56'510.7
2018-Apr-21 06:01N 33°58' E 130°50'713.4
2018-Apr-21 05:30N 33°58' E 130°42'714.1
2018-Apr-21 05:00N 33°56' E 130°34'713.6
2018-Apr-21 04:30N 33°53' E 130°27'714.2
2018-Apr-21 04:00N 33°47' E 130°21'713.5
2018-Apr-21 03:28N 33°41' E 130°16'612.6
2018-Apr-21 03:00N 33°37' E 130°21'2 2.9
2018-Apr-21 02:25N 33°36' E 130°23'0 0.0
2018-Apr-21 01:55N 33°36' E 130°23'0 0.0
2018-Apr-21 01:25N 33°36' E 130°23'0 0.0
2018-Apr-21 01:00N 33°36' E 130°23'0 0.0
2018-Apr-21 00:30N 33°36' E 130°23'0 0.0
2018-Apr-21 00:00N 33°36' E 130°23'0 0.0
2018-Apr-20 23:30N 33°36' E 130°23'0 0.0
2018-Apr-20 23:00N 33°36' E 130°23'0 0.8
2018-Apr-20 22:30N 33°37' E 130°23'3 5.2
2018-Apr-20 22:00N 33°38' E 130°20'5 9.6
2018-Apr-20 21:30N 33°41' E 130°16'612.6
2018-Apr-20 21:00N 33°47' E 130°18'612.7
2018-Apr-20 20:30N 33°53' E 130°21'612.1
2018-Apr-20 19:58N 33°58' E 130°26'612.6
2018-Apr-20 19:30N 33°60' E 130°33'612.9
2018-Apr-20 19:00N 34°02' E 130°40'612.9
2018-Apr-20 18:30N 34°03' E 130°48'612.2
2018-Apr-20 18:01N 33°57' E 130°51'5 9.4
2018-Apr-20 17:30N 33°57' E 130°57'611.7
2018-Apr-20 17:00N 33°57' E 131°04'713.1
2018-Apr-20 16:30N 33°53' E 131°11'713.2
2018-Apr-20 16:00N 33°51' E 131°18'713.4
2018-Apr-20 15:30N 33°50' E 131°26'713.4
2018-Apr-20 15:00N 33°48' E 131°34'713.7
2018-Apr-20 14:30N 33°47' E 131°42'713.8
2018-Apr-20 14:00N 33°45' E 131°50'713.6
2018-Apr-20 13:30N 33°44' E 131°58'713.2
2018-Apr-20 13:00N 33°42' E 132°06'37 1.5
2018-Apr-19 12:51N 33°60' E 132°45'515.7
2018-Apr-19 12:30N 33°56' E 132°41'5713.1
2018-Apr-19 08:07N 33°47' E 131°32'214.1
2018-Apr-19 07:59N 33°48' E 131°30'714.2
2018-Apr-19 07:31N 33°49' E 131°22'714.5
2018-Apr-19 07:01N 33°51' E 131°14'714.6
2018-Apr-19 06:31N 33°55' E 131°06'714.0
2018-Apr-19 06:01N 33°58' E 130°59'611.8
2018-Apr-19 05:30N 33°55' E 130°54'612.8
2018-Apr-19 05:00N 33°58' E 130°47'714.4
2018-Apr-19 04:30N 33°57' E 130°38'714.4
2018-Apr-19 04:00N 33°55' E 130°30'814.5
2018-Apr-19 03:26N 33°49' E 130°23'814.4
2018-Apr-19 02:54N 33°43' E 130°17'410.8
2018-Apr-19 02:30N 33°39' E 130°18'4 8.1
2018-Apr-19 01:58N 33°36' E 130°23'0 0.0
2018-Apr-19 01:28N 33°36' E 130°23'0 0.0
2018-Apr-19 00:58N 33°36' E 130°23'0 0.0
2018-Apr-19 00:28N 33°36' E 130°23'0 0.0
2018-Apr-18 23:58N 33°36' E 130°23'0 0.0
2018-Apr-18 23:28N 33°36' E 130°23'0 0.0
2018-Apr-18 22:58N 33°36' E 130°23'0 0.0
2018-Apr-18 22:28N 33°36' E 130°23'1 1.6
2018-Apr-18 22:00N 33°37' E 130°23'4 8.6
2018-Apr-18 21:30N 33°39' E 130°18'611.6
2018-Apr-18 21:00N 33°45' E 130°17'611.1
2018-Apr-18 20:29N 33°50' E 130°18'8 5.8
2018-Apr-18 19:10N 33°57' E 130°22'212.2
2018-Apr-18 18:58N 33°58' E 130°25'612.1
2018-Apr-18 18:29N 33°60' E 130°32'612.4
2018-Apr-18 17:58N 34°02' E 130°39'612.5
2018-Apr-18 17:30N 34°03' E 130°46'611.0
2018-Apr-18 17:00N 33°59' E 130°51'611.6
2018-Apr-18 16:30N 33°55' E 130°56'612.2
2018-Apr-18 16:00N 33°58' E 131°02'712.9
2018-Apr-18 15:30N 33°54' E 131°08'612.6
2018-Apr-18 15:00N 33°51' E 131°15'713.2
2018-Apr-18 14:30N 33°50' E 131°23'713.2
2018-Apr-18 14:00N 33°48' E 131°30'713.2
2018-Apr-18 13:30N 33°47' E 131°38'813.6
2018-Apr-18 12:56N 33°46' E 131°47'613.6
2018-Apr-18 12:29N 33°44' E 131°55'45 1.8
2018-Apr-17 11:51N 33°60' E 132°45'615.8
2018-Apr-17 11:28N 33°55' E 132°40'5613.1
2018-Apr-17 07:11N 33°47' E 131°33'314.1
2018-Apr-17 06:59N 33°48' E 131°30'714.2
2018-Apr-17 06:30N 33°49' E 131°22'714.4
2018-Apr-17 06:01N 33°51' E 131°13'714.3
2018-Apr-17 05:31N 33°55' E 131°06'713.5
2018-Apr-17 05:01N 33°58' E 130°59'611.0
2018-Apr-17 04:29N 33°54' E 130°54'611.8
2018-Apr-17 04:00N 33°58' E 130°48'713.7
2018-Apr-17 03:30N 33°58' E 130°40'713.9
2018-Apr-17 03:00N 33°56' E 130°32'612.7
2018-Apr-17 02:30N 33°52' E 130°26'713.9
2018-Apr-17 02:00N 33°46' E 130°21'613.0
2018-Apr-17 01:30N 33°41' E 130°16'612.7
2018-Apr-17 01:00N 33°37' E 130°22'1 2.7
2018-Apr-17 00:30N 33°36' E 130°23'0 0.0
2018-Apr-16 23:55N 33°36' E 130°23'0 0.0
2018-Apr-16 23:25N 33°36' E 130°23'0 0.0
2018-Apr-16 22:55N 33°36' E 130°23'0 0.0
2018-Apr-16 22:25N 33°36' E 130°23'0 0.0
2018-Apr-16 21:49N 33°36' E 130°23'0 0.0
2018-Apr-16 21:25N 33°36' E 130°23'0 0.0
2018-Apr-16 20:55N 33°36' E 130°23'0 0.0
2018-Apr-16 20:25N 33°36' E 130°23'0 0.0
2018-Apr-16 19:55N 33°36' E 130°23'0 0.0
2018-Apr-16 19:25N 33°36' E 130°23'0 0.0
2018-Apr-16 18:49N 33°36' E 130°23'0 0.0
2018-Apr-16 18:25N 33°36' E 130°23'0 0.0
2018-Apr-16 17:55N 33°36' E 130°23'0 0.0
2018-Apr-16 17:25N 33°36' E 130°23'0 0.0
2018-Apr-16 16:55N 33°36' E 130°23'0 0.0
2018-Apr-16 16:28N 33°36' E 130°23'0 0.0
2018-Apr-16 15:55N 33°36' E 130°23'0 0.0
2018-Apr-16 15:25N 33°36' E 130°23'0 0.0
2018-Apr-16 14:49N 33°36' E 130°23'0 0.0
2018-Apr-16 14:25N 33°36' E 130°23'0 0.0
2018-Apr-16 13:55N 33°36' E 130°23'0 0.0
2018-Apr-16 13:25N 33°36' E 130°23'0 0.0
2018-Apr-16 12:55N 33°36' E 130°23'0 0.0
2018-Apr-16 12:25N 33°36' E 130°23'0 0.0
2018-Apr-16 11:55N 33°36' E 130°23'0 0.0
2018-Apr-16 11:25N 33°36' E 130°23'0 0.0
2018-Apr-16 10:55N 33°36' E 130°23'0 0.0
2018-Apr-16 10:25N 33°36' E 130°23'0 0.0
2018-Apr-16 09:55N 33°36' E 130°23'0 0.0
2018-Apr-16 09:25N 33°36' E 130°23'0 0.0
2018-Apr-16 08:55N 33°36' E 130°23'0 0.0
2018-Apr-16 08:25N 33°36' E 130°23'0 0.0
2018-Apr-16 07:55N 33°36' E 130°23'0 0.0
2018-Apr-16 07:25N 33°36' E 130°23'0 0.0
2018-Apr-16 06:55N 33°36' E 130°23'0 0.0
2018-Apr-16 06:25N 33°36' E 130°23'0 0.0
2018-Apr-16 05:55N 33°36' E 130°23'0 0.0
2018-Apr-16 05:25N 33°36' E 130°23'0 0.0
2018-Apr-16 04:55N 33°36' E 130°23'0 0.0
2018-Apr-16 04:25N 33°36' E 130°23'0 0.0
2018-Apr-16 03:55N 33°36' E 130°23'0 0.0
2018-Apr-16 03:25N 33°36' E 130°23'0 0.1
2018-Apr-16 02:55N 33°36' E 130°23'2 3.7
2018-Apr-16 02:30N 33°37' E 130°22'1 1.9
2018-Apr-16 02:01N 33°37' E 130°23'0 0.7
2018-Apr-16 01:30N 33°36' E 130°23'0 0.0
2018-Apr-16 01:00N 33°36' E 130°23'0 0.0
2018-Apr-16 00:30N 33°36' E 130°23'0 0.0
2018-Apr-16 00:00N 33°36' E 130°23'0 0.0
2018-Apr-15 23:30N 33°36' E 130°23'0 0.0
2018-Apr-15 23:00N 33°36' E 130°23'1 2.0
2018-Apr-15 22:30N 33°37' E 130°23'1 2.9
2018-Apr-15 22:00N 33°37' E 130°21'0 0.0
2018-Apr-15 21:30N 33°37' E 130°21'0 0.0
2018-Apr-15 21:00N 33°37' E 130°21'0 0.1
2018-Apr-15 20:30N 33°37' E 130°21'2 4.9
2018-Apr-15 20:01N 33°39' E 130°19'611.5
2018-Apr-15 19:30N 33°44' E 130°16'713.4
2018-Apr-15 19:00N 33°50' E 130°20'612.9
2018-Apr-15 18:30N 33°56' E 130°24'712.5
2018-Apr-15 17:57N 33°59' E 130°31'612.7
2018-Apr-15 17:29N 34°01' E 130°38'612.7
2018-Apr-15 17:01N 34°02' E 130°45'611.0
2018-Apr-15 16:30N 33°60' E 130°51'611.8
2018-Apr-15 16:00N 33°55' E 130°54'510.3
2018-Apr-15 15:30N 33°58' E 130°59'611.8
2018-Apr-15 15:00N 33°56' E 131°05'612.3
2018-Apr-15 14:30N 33°53' E 131°11'612.5
2018-Apr-15 14:00N 33°51' E 131°19'612.8
2018-Apr-15 13:30N 33°50' E 131°26'612.9
2018-Apr-15 13:00N 33°48' E 131°34'712.9
2018-Apr-15 12:30N 33°47' E 131°41'713.1
2018-Apr-15 11:59N 33°46' E 131°49'134 5.6
2018-Apr-14 11:59N 34°21' E 134°26'1913.6
2018-Apr-14 10:34N 34°10' E 134°45'213.3
2018-Apr-14 10:24N 34°09' E 134°47'512.9
2018-Apr-14 09:59N 34°08' E 134°53'713.1
2018-Apr-14 09:29N 34°08' E 135°01'5 1.5
2018-Apr-14 06:02N 34°07' E 135°07'0 2.3
2018-Apr-14 06:00N 34°07' E 135°07'1 2.1
2018-Apr-14 05:30N 34°08' E 135°07'0 0.1
2018-Apr-14 05:00N 34°08' E 135°07'0 0.0
2018-Apr-14 04:30N 34°08' E 135°07'0 0.0
2018-Apr-14 04:00N 34°08' E 135°07'0 0.0
2018-Apr-14 03:30N 34°08' E 135°07'0 0.0
2018-Apr-14 03:01N 34°08' E 135°07'0 0.0
2018-Apr-14 02:30N 34°08' E 135°07'0 0.0
2018-Apr-14 02:00N 34°08' E 135°07'0 0.0
2018-Apr-14 01:30N 34°08' E 135°07'0 0.0
2018-Apr-14 00:59N 34°08' E 135°07'0 0.0
2018-Apr-14 00:30N 34°08' E 135°07'0 0.1
2018-Apr-14 00:00N 34°08' E 135°07'0 0.1
2018-Apr-13 23:30N 34°08' E 135°07'0 0.1
2018-Apr-13 23:00N 34°08' E 135°07'0 0.1
2018-Apr-13 22:30N 34°08' E 135°07'1 1.9
2018-Apr-13 22:00N 34°09' E 135°06'713.1
2018-Apr-13 21:30N 34°14' E 135°01'612.1
2018-Apr-13 21:00N 34°19' E 134°58'713.1
2018-Apr-13 20:30N 34°26' E 135°00'612.8
2018-Apr-13 20:00N 34°32' E 135°02'510.0
2018-Apr-13 19:30N 34°37' E 135°01'713.4
2018-Apr-13 19:01N 34°35' E 134°53'713.9
2018-Apr-13 18:31N 34°32' E 134°45'713.7
2018-Apr-13 18:00N 34°29' E 134°38'713.7
2018-Apr-13 17:30N 34°27' E 134°30'813.6
2018-Apr-13 16:54N 34°24' E 134°21'714.1
2018-Apr-13 16:25N 34°24' E 134°12'  
Track history (hours):
 
Tides and Currents Weather Stations Pressure Air Temp Water Temp Dewpoint Dewpoint Depression Visibility Wind Speed Wind Dir Waves Ship Positions

Naniwa Maru No.21

Last reported at 2018-Apr-23 15:30 UTC. Time now 2018-Apr-23 15:30 UTC.
Position N 33°58' E 132°44'.

Length 71 m; draft 4.4 m.

Type: Tanker. MMSI: 431301595.

Date/timePositionNaut miles runAvg speedWind from/ knotsBaromVisibWave heightAir tempDewpointWater temp
2018-Apr-23 15:30N 33°58' E 132°44'5712.7
2018-Apr-23 11:01N 33°47' E 131°37'213.6
2018-Apr-23 10:53N 33°47' E 131°35'613.7
2018-Apr-23 10:28N 33°48' E 131°28'714.1
2018-Apr-23 10:00N 33°50' E 131°20'713.8
2018-Apr-23 09:30N 33°51' E 131°12'713.5
2018-Apr-23 09:00N 33°55' E 131°05'612.6
2018-Apr-23 08:30N 33°58' E 130°59'611.5
2018-Apr-23 08:01N 33°54' E 130°54'612.1
2018-Apr-23 07:30N 33°58' E 130°48'713.1
2018-Apr-23 07:00N 33°57' E 130°40'713.4
2018-Apr-23 06:30N 33°56' E 130°32'613.0
2018-Apr-23 06:00N 33°52' E 130°26'713.5
2018-Apr-23 05:30N 33°47' E 130°21'712.9
2018-Apr-23 05:00N 33°41' E 130°16'612.5
2018-Apr-23 04:30N 33°37' E 130°21'1 2.6
2018-Apr-23 03:59N 33°36' E 130°23'0 0.0
2018-Apr-23 03:29N 33°36' E 130°23'0 0.0
2018-Apr-23 02:59N 33°36' E 130°23'0 0.0
2018-Apr-23 02:29N 33°36' E 130°23'0 0.0
2018-Apr-23 02:00N 33°36' E 130°23'0 0.0
2018-Apr-23 01:30N 33°36' E 130°23'0 0.0
2018-Apr-23 01:01N 33°36' E 130°23'0 0.0
2018-Apr-23 00:30N 33°36' E 130°23'0 0.0
2018-Apr-23 00:01N 33°36' E 130°23'1 1.1
2018-Apr-22 23:30N 33°37' E 130°23'4 8.4
2018-Apr-22 23:00N 33°38' E 130°19'510.2
2018-Apr-22 22:30N 33°44' E 130°17'613.0
2018-Apr-22 22:00N 33°48' E 130°22'712.9
2018-Apr-22 21:30N 33°54' E 130°27'611.9
2018-Apr-22 21:00N 33°58' E 130°32'713.2
2018-Apr-22 20:28N 34°01' E 130°40'612.7
2018-Apr-22 20:00N 34°02' E 130°47'611.5
2018-Apr-22 19:30N 33°58' E 130°51'5 9.5
2018-Apr-22 19:00N 33°57' E 130°57'612.5
2018-Apr-22 18:30N 33°57' E 131°04'713.3
2018-Apr-22 18:00N 33°53' E 131°11'713.3
2018-Apr-22 17:31N 33°51' E 131°18'713.3
2018-Apr-22 17:00N 33°50' E 131°26'713.2
2018-Apr-22 16:31N 33°48' E 131°34'713.6
2018-Apr-22 16:00N 33°47' E 131°42'713.6
2018-Apr-22 15:31N 33°45' E 131°50'713.6
2018-Apr-22 15:00N 33°44' E 131°58'43 1.8
2018-Apr-21 15:12N 34°01' E 132°45'315.5
2018-Apr-21 15:00N 33°58' E 132°44'5113.2
2018-Apr-21 11:09N 33°45' E 131°45'213.3
2018-Apr-21 10:59N 33°45' E 131°42'713.4
2018-Apr-21 10:26N 33°47' E 131°33'613.5
2018-Apr-21 10:00N 33°48' E 131°27'713.6
2018-Apr-21 09:30N 33°50' E 131°19'713.7
2018-Apr-21 09:00N 33°52' E 131°11'713.8
2018-Apr-21 08:30N 33°56' E 131°04'1 2.3
2018-Apr-21 07:55N 33°56' E 131°03'0 0.1
2018-Apr-21 07:25N 33°56' E 131°03'1 3.0
2018-Apr-21 07:00N 33°57' E 131°02'511.0
2018-Apr-21 06:30N 33°55' E 130°56'510.7
2018-Apr-21 06:01N 33°58' E 130°50'713.4
2018-Apr-21 05:30N 33°58' E 130°42'714.1
2018-Apr-21 05:00N 33°56' E 130°34'713.6
2018-Apr-21 04:30N 33°53' E 130°27'714.2
2018-Apr-21 04:00N 33°47' E 130°21'713.5
2018-Apr-21 03:28N 33°41' E 130°16'612.6
2018-Apr-21 03:00N 33°37' E 130°21'2 2.9
2018-Apr-21 02:25N 33°36' E 130°23'0 0.0
2018-Apr-21 01:55N 33°36' E 130°23'0 0.0
2018-Apr-21 01:25N 33°36' E 130°23'0 0.0
2018-Apr-21 01:00N 33°36' E 130°23'0 0.0
2018-Apr-21 00:30N 33°36' E 130°23'0 0.0
2018-Apr-21 00:00N 33°36' E 130°23'0 0.0
2018-Apr-20 23:30N 33°36' E 130°23'0 0.0
2018-Apr-20 23:00N 33°36' E 130°23'0 0.8
2018-Apr-20 22:30N 33°37' E 130°23'3 5.2
2018-Apr-20 22:00N 33°38' E 130°20'5 9.6
2018-Apr-20 21:30N 33°41' E 130°16'612.6
2018-Apr-20 21:00N 33°47' E 130°18'612.7
2018-Apr-20 20:30N 33°53' E 130°21'612.1
2018-Apr-20 19:58N 33°58' E 130°26'612.6
2018-Apr-20 19:30N 33°60' E 130°33'612.9
2018-Apr-20 19:00N 34°02' E 130°40'612.9
2018-Apr-20 18:30N 34°03' E 130°48'612.2
2018-Apr-20 18:01N 33°57' E 130°51'5 9.4
2018-Apr-20 17:30N 33°57' E 130°57'611.7
2018-Apr-20 17:00N 33°57' E 131°04'713.1
2018-Apr-20 16:30N 33°53' E 131°11'713.2
2018-Apr-20 16:00N 33°51' E 131°18'713.4
2018-Apr-20 15:30N 33°50' E 131°26'713.4
2018-Apr-20 15:00N 33°48' E 131°34'713.7
2018-Apr-20 14:30N 33°47' E 131°42'713.8
2018-Apr-20 14:00N 33°45' E 131°50'713.6
2018-Apr-20 13:30N 33°44' E 131°58'713.2
2018-Apr-20 13:00N 33°42' E 132°06'37 1.5
2018-Apr-19 12:51N 33°60' E 132°45'515.7
2018-Apr-19 12:30N 33°56' E 132°41'5713.1
2018-Apr-19 08:07N 33°47' E 131°32'214.1
2018-Apr-19 07:59N 33°48' E 131°30'714.2
2018-Apr-19 07:31N 33°49' E 131°22'714.5
2018-Apr-19 07:01N 33°51' E 131°14'714.6
2018-Apr-19 06:31N 33°55' E 131°06'714.0
2018-Apr-19 06:01N 33°58' E 130°59'611.8
2018-Apr-19 05:30N 33°55' E 130°54'612.8
2018-Apr-19 05:00N 33°58' E 130°47'714.4
2018-Apr-19 04:30N 33°57' E 130°38'714.4
2018-Apr-19 04:00N 33°55' E 130°30'814.5
2018-Apr-19 03:26N 33°49' E 130°23'814.4
2018-Apr-19 02:54N 33°43' E 130°17'410.8
2018-Apr-19 02:30N 33°39' E 130°18'4 8.1
2018-Apr-19 01:58N 33°36' E 130°23'0 0.0
2018-Apr-19 01:28N 33°36' E 130°23'0 0.0
2018-Apr-19 00:58N 33°36' E 130°23'0 0.0
2018-Apr-19 00:28N 33°36' E 130°23'0 0.0
2018-Apr-18 23:58N 33°36' E 130°23'0 0.0
2018-Apr-18 23:28N 33°36' E 130°23'0 0.0
2018-Apr-18 22:58N 33°36' E 130°23'0 0.0
2018-Apr-18 22:28N 33°36' E 130°23'1 1.6
2018-Apr-18 22:00N 33°37' E 130°23'4 8.6
2018-Apr-18 21:30N 33°39' E 130°18'611.6
2018-Apr-18 21:00N 33°45' E 130°17'611.1
2018-Apr-18 20:29N 33°50' E 130°18'8 5.8
2018-Apr-18 19:10N 33°57' E 130°22'212.2
2018-Apr-18 18:58N 33°58' E 130°25'612.1
2018-Apr-18 18:29N 33°60' E 130°32'612.4
2018-Apr-18 17:58N 34°02' E 130°39'612.5
2018-Apr-18 17:30N 34°03' E 130°46'611.0
2018-Apr-18 17:00N 33°59' E 130°51'611.6
2018-Apr-18 16:30N 33°55' E 130°56'612.2
2018-Apr-18 16:00N 33°58' E 131°02'712.9
2018-Apr-18 15:30N 33°54' E 131°08'612.6
2018-Apr-18 15:00N 33°51' E 131°15'713.2
2018-Apr-18 14:30N 33°50' E 131°23'713.2
2018-Apr-18 14:00N 33°48' E 131°30'713.2
2018-Apr-18 13:30N 33°47' E 131°38'813.6
2018-Apr-18 12:56N 33°46' E 131°47'613.6
2018-Apr-18 12:29N 33°44' E 131°55'45 1.8
2018-Apr-17 11:51N 33°60' E 132°45'615.8
2018-Apr-17 11:28N 33°55' E 132°40'5613.1
2018-Apr-17 07:11N 33°47' E 131°33'314.1
2018-Apr-17 06:59N 33°48' E 131°30'714.2
2018-Apr-17 06:30N 33°49' E 131°22'714.4
2018-Apr-17 06:01N 33°51' E 131°13'714.3
2018-Apr-17 05:31N 33°55' E 131°06'713.5
2018-Apr-17 05:01N 33°58' E 130°59'611.0
2018-Apr-17 04:29N 33°54' E 130°54'611.8
2018-Apr-17 04:00N 33°58' E 130°48'713.7
2018-Apr-17 03:30N 33°58' E 130°40'713.9
2018-Apr-17 03:00N 33°56' E 130°32'612.7
2018-Apr-17 02:30N 33°52' E 130°26'713.9
2018-Apr-17 02:00N 33°46' E 130°21'613.0
2018-Apr-17 01:30N 33°41' E 130°16'612.7
2018-Apr-17 01:00N 33°37' E 130°22'1 2.7
2018-Apr-17 00:30N 33°36' E 130°23'0 0.0
2018-Apr-16 23:55N 33°36' E 130°23'0 0.0
2018-Apr-16 23:25N 33°36' E 130°23'0 0.0
2018-Apr-16 22:55N 33°36' E 130°23'0 0.0
2018-Apr-16 22:25N 33°36' E 130°23'0 0.0
2018-Apr-16 21:49N 33°36' E 130°23'0 0.0
2018-Apr-16 21:25N 33°36' E 130°23'0 0.0
2018-Apr-16 20:55N 33°36' E 130°23'0 0.0
2018-Apr-16 20:25N 33°36' E 130°23'0 0.0
2018-Apr-16 19:55N 33°36' E 130°23'0 0.0
2018-Apr-16 19:25N 33°36' E 130°23'0 0.0
2018-Apr-16 18:49N 33°36' E 130°23'0 0.0
2018-Apr-16 18:25N 33°36' E 130°23'0 0.0
2018-Apr-16 17:55N 33°36' E 130°23'0 0.0
2018-Apr-16 17:25N 33°36' E 130°23'0 0.0
2018-Apr-16 16:55N 33°36' E 130°23'0 0.0
2018-Apr-16 16:28N 33°36' E 130°23'0 0.0
2018-Apr-16 15:55N 33°36' E 130°23'0 0.0
2018-Apr-16 15:25N 33°36' E 130°23'0 0.0
2018-Apr-16 14:49N 33°36' E 130°23'0 0.0
2018-Apr-16 14:25N 33°36' E 130°23'0 0.0
2018-Apr-16 13:55N 33°36' E 130°23'0 0.0
2018-Apr-16 13:25N 33°36' E 130°23'0 0.0
2018-Apr-16 12:55N 33°36' E 130°23'0 0.0
2018-Apr-16 12:25N 33°36' E 130°23'0 0.0
2018-Apr-16 11:55N 33°36' E 130°23'0 0.0
2018-Apr-16 11:25N 33°36' E 130°23'0 0.0
2018-Apr-16 10:55N 33°36' E 130°23'0 0.0
2018-Apr-16 10:25N 33°36' E 130°23'0 0.0
2018-Apr-16 09:55N 33°36' E 130°23'0 0.0
2018-Apr-16 09:25N 33°36' E 130°23'0 0.0
2018-Apr-16 08:55N 33°36' E 130°23'0 0.0
2018-Apr-16 08:25N 33°36' E 130°23'0 0.0
2018-Apr-16 07:55N 33°36' E 130°23'0 0.0
2018-Apr-16 07:25N 33°36' E 130°23'0 0.0
2018-Apr-16 06:55N 33°36' E 130°23'0 0.0
2018-Apr-16 06:25N 33°36' E 130°23'0 0.0
2018-Apr-16 05:55N 33°36' E 130°23'0 0.0
2018-Apr-16 05:25N 33°36' E 130°23'0 0.0
2018-Apr-16 04:55N 33°36' E 130°23'0 0.0
2018-Apr-16 04:25N 33°36' E 130°23'0 0.0
2018-Apr-16 03:55N 33°36' E 130°23'0 0.0
2018-Apr-16 03:25N 33°36' E 130°23'0 0.1
2018-Apr-16 02:55N 33°36' E 130°23'2 3.7
2018-Apr-16 02:30N 33°37' E 130°22'1 1.9
2018-Apr-16 02:01N 33°37' E 130°23'0 0.7
2018-Apr-16 01:30N 33°36' E 130°23'0 0.0
2018-Apr-16 01:00N 33°36' E 130°23'0 0.0
2018-Apr-16 00:30N 33°36' E 130°23'0 0.0
2018-Apr-16 00:00N 33°36' E 130°23'0 0.0
2018-Apr-15 23:30N 33°36' E 130°23'0 0.0
2018-Apr-15 23:00N 33°36' E 130°23'1 2.0
2018-Apr-15 22:30N 33°37' E 130°23'1 2.9
2018-Apr-15 22:00N 33°37' E 130°21'0 0.0
2018-Apr-15 21:30N 33°37' E 130°21'0 0.0
2018-Apr-15 21:00N 33°37' E 130°21'0 0.1
2018-Apr-15 20:30N 33°37' E 130°21'2 4.9
2018-Apr-15 20:01N 33°39' E 130°19'611.5
2018-Apr-15 19:30N 33°44' E 130°16'713.4
2018-Apr-15 19:00N 33°50' E 130°20'612.9
2018-Apr-15 18:30N 33°56' E 130°24'712.5
2018-Apr-15 17:57N 33°59' E 130°31'612.7
2018-Apr-15 17:29N 34°01' E 130°38'612.7
2018-Apr-15 17:01N 34°02' E 130°45'611.0
2018-Apr-15 16:30N 33°60' E 130°51'611.8
2018-Apr-15 16:00N 33°55' E 130°54'510.3
2018-Apr-15 15:30N 33°58' E 130°59'611.8
2018-Apr-15 15:00N 33°56' E 131°05'612.3
2018-Apr-15 14:30N 33°53' E 131°11'612.5
2018-Apr-15 14:00N 33°51' E 131°19'612.8
2018-Apr-15 13:30N 33°50' E 131°26'612.9
2018-Apr-15 13:00N 33°48' E 131°34'712.9
2018-Apr-15 12:30N 33°47' E 131°41'713.1
2018-Apr-15 11:59N 33°46' E 131°49'134 5.6
2018-Apr-14 11:59N 34°21' E 134°26'1913.6
2018-Apr-14 10:34N 34°10' E 134°45'213.3
2018-Apr-14 10:24N 34°09' E 134°47'512.9
2018-Apr-14 09:59N 34°08' E 134°53'713.1
2018-Apr-14 09:29N 34°08' E 135°01'5 1.5
2018-Apr-14 06:02N 34°07' E 135°07'0 2.3
2018-Apr-14 06:00N 34°07' E 135°07'1 2.1
2018-Apr-14 05:30N 34°08' E 135°07'0 0.1
2018-Apr-14 05:00N 34°08' E 135°07'0 0.0
2018-Apr-14 04:30N 34°08' E 135°07'0 0.0
2018-Apr-14 04:00N 34°08' E 135°07'0 0.0
2018-Apr-14 03:30N 34°08' E 135°07'0 0.0
2018-Apr-14 03:01N 34°08' E 135°07'0 0.0
2018-Apr-14 02:30N 34°08' E 135°07'0 0.0
2018-Apr-14 02:00N 34°08' E 135°07'0 0.0
2018-Apr-14 01:30N 34°08' E 135°07'0 0.0
2018-Apr-14 00:59N 34°08' E 135°07'0 0.0
2018-Apr-14 00:30N 34°08' E 135°07'0 0.1
2018-Apr-14 00:00N 34°08' E 135°07'0 0.1
2018-Apr-13 23:30N 34°08' E 135°07'0 0.1
2018-Apr-13 23:00N 34°08' E 135°07'0 0.1
2018-Apr-13 22:30N 34°08' E 135°07'1 1.9
2018-Apr-13 22:00N 34°09' E 135°06'713.1
2018-Apr-13 21:30N 34°14' E 135°01'612.1
2018-Apr-13 21:00N 34°19' E 134°58'713.1
2018-Apr-13 20:30N 34°26' E 135°00'612.8
2018-Apr-13 20:00N 34°32' E 135°02'510.0
2018-Apr-13 19:30N 34°37' E 135°01'713.4
2018-Apr-13 19:01N 34°35' E 134°53'713.9
2018-Apr-13 18:31N 34°32' E 134°45'713.7
2018-Apr-13 18:00N 34°29' E 134°38'713.7
2018-Apr-13 17:30N 34°27' E 134°30'813.6
2018-Apr-13 16:54N 34°24' E 134°21'714.1
2018-Apr-13 16:25N 34°24' E 134°12'  

Dump ship's entire track history